sensor_id;sensor_type;location;lat;lon;timestamp;pressure;altitude;pressure_sealevel;temperature;humidity
68807;BME280;55800;54.272;18.558;2023-08-07T00:00:56;98920.00;;;17.33;72.03
68807;BME280;55800;54.272;18.558;2023-08-07T00:03:34;98917.75;;;17.28;72.26
68807;BME280;55800;54.272;18.558;2023-08-07T00:06:04;98911.66;;;17.26;71.57
68807;BME280;55800;54.272;18.558;2023-08-07T00:08:33;98916.78;;;17.20;72.21
68807;BME280;55800;54.272;18.558;2023-08-07T00:11:05;98911.56;;;17.08;71.78
68807;BME280;55800;54.272;18.558;2023-08-07T00:13:36;98922.19;;;17.10;71.24
68807;BME280;55800;54.272;18.558;2023-08-07T00:16:06;98918.94;;;17.06;70.94
68807;BME280;55800;54.272;18.558;2023-08-07T00:18:35;98910.16;;;17.04;72.17
68807;BME280;55800;54.272;18.558;2023-08-07T00:21:05;98915.81;;;17.01;72.36
68807;BME280;55800;54.272;18.558;2023-08-07T00:23:34;98924.09;;;17.00;72.41
68807;BME280;55800;54.272;18.558;2023-08-07T00:26:03;98922.09;;;16.92;72.48
68807;BME280;55800;54.272;18.558;2023-08-07T00:28:32;98923.69;;;16.85;72.67
68807;BME280;55800;54.272;18.558;2023-08-07T00:31:03;98919.28;;;16.84;72.47
68807;BME280;55800;54.272;18.558;2023-08-07T00:33:32;98915.88;;;16.82;72.29
68807;BME280;55800;54.272;18.558;2023-08-07T00:36:02;98911.91;;;16.77;71.80
68807;BME280;55800;54.272;18.558;2023-08-07T00:38:31;98915.75;;;16.74;72.35
68807;BME280;55800;54.272;18.558;2023-08-07T00:41:01;98916.72;;;16.73;72.25
68807;BME280;55800;54.272;18.558;2023-08-07T00:43:30;98917.03;;;16.70;71.47
68807;BME280;55800;54.272;18.558;2023-08-07T00:45:59;98920.44;;;16.63;71.91
68807;BME280;55800;54.272;18.558;2023-08-07T00:48:29;98910.78;;;16.60;72.18
68807;BME280;55800;54.272;18.558;2023-08-07T00:51:02;98906.53;;;16.58;72.05
68807;BME280;55800;54.272;18.558;2023-08-07T00:53:32;98911.34;;;16.54;71.49
68807;BME280;55800;54.272;18.558;2023-08-07T00:56:02;98906.97;;;16.53;71.26
68807;BME280;55800;54.272;18.558;2023-08-07T00:58:31;98908.47;;;16.46;72.04
68807;BME280;55800;54.272;18.558;2023-08-07T01:01:01;98903.94;;;16.47;71.34
68807;BME280;55800;54.272;18.558;2023-08-07T01:03:32;98904.09;;;16.45;71.59
68807;BME280;55800;54.272;18.558;2023-08-07T01:06:02;98900.38;;;16.46;71.10
68807;BME280;55800;54.272;18.558;2023-08-07T01:08:31;98902.25;;;16.46;71.27
68807;BME280;55800;54.272;18.558;2023-08-07T01:11:16;98906.34;;;16.40;71.54
68807;BME280;55800;54.272;18.558;2023-08-07T01:13:54;98903.66;;;16.40;70.84
68807;BME280;55800;54.272;18.558;2023-08-07T01:16:31;98907.38;;;16.39;71.51
68807;BME280;55800;54.272;18.558;2023-08-07T01:19:05;98900.97;;;16.40;72.32
68807;BME280;55800;54.272;18.558;2023-08-07T01:21:38;98895.13;;;16.35;71.96
68807;BME280;55800;54.272;18.558;2023-08-07T01:24:09;98890.91;;;16.32;73.14
68807;BME280;55800;54.272;18.558;2023-08-07T01:26:39;98885.34;;;16.34;72.32
68807;BME280;55800;54.272;18.558;2023-08-07T01:29:19;98881.25;;;16.30;72.42
68807;BME280;55800;54.272;18.558;2023-08-07T01:31:54;98875.16;;;16.28;72.18
68807;BME280;55800;54.272;18.558;2023-08-07T01:34:25;98880.53;;;16.28;72.58
68807;BME280;55800;54.272;18.558;2023-08-07T01:36:55;98881.50;;;16.27;72.46
68807;BME280;55800;54.272;18.558;2023-08-07T01:39:27;98876.41;;;16.24;73.19
68807;BME280;55800;54.272;18.558;2023-08-07T01:41:58;98871.84;;;16.24;72.94
68807;BME280;55800;54.272;18.558;2023-08-07T01:44:28;98879.38;;;16.21;72.57
68807;BME280;55800;54.272;18.558;2023-08-07T01:46:58;98876.69;;;16.21;73.58
68807;BME280;55800;54.272;18.558;2023-08-07T01:49:27;98867.63;;;16.22;74.34
68807;BME280;55800;54.272;18.558;2023-08-07T01:51:56;98862.22;;;16.22;73.82
68807;BME280;55800;54.272;18.558;2023-08-07T01:54:28;98871.59;;;16.18;73.22
68807;BME280;55800;54.272;18.558;2023-08-07T01:56:57;98871.88;;;16.15;74.11
68807;BME280;55800;54.272;18.558;2023-08-07T01:59:27;98879.81;;;16.16;73.76
68807;BME280;55800;54.272;18.558;2023-08-07T02:01:56;98885.19;;;16.16;73.68
68807;BME280;55800;54.272;18.558;2023-08-07T02:04:25;98880.94;;;16.14;73.31
68807;BME280;55800;54.272;18.558;2023-08-07T02:06:55;98866.75;;;16.12;72.79
68807;BME280;55800;54.272;18.558;2023-08-07T02:09:24;98856.81;;;16.12;72.74
68807;BME280;55800;54.272;18.558;2023-08-07T02:11:55;98852.28;;;16.13;73.56
68807;BME280;55800;54.272;18.558;2023-08-07T02:14:24;98855.97;;;16.12;73.46
68807;BME280;55800;54.272;18.558;2023-08-07T02:16:54;98861.34;;;16.12;73.78
68807;BME280;55800;54.272;18.558;2023-08-07T02:19:24;98846.19;;;16.11;73.05
68807;BME280;55800;54.272;18.558;2023-08-07T02:21:53;98849.59;;;16.13;73.16
68807;BME280;55800;54.272;18.558;2023-08-07T02:24:23;98850.72;;;16.10;73.79
68807;BME280;55800;54.272;18.558;2023-08-07T02:26:52;98850.72;;;16.10;73.71
68807;BME280;55800;54.272;18.558;2023-08-07T02:29:23;98847.16;;;16.10;73.54
68807;BME280;55800;54.272;18.558;2023-08-07T02:31:53;98857.84;;;16.11;73.74
68807;BME280;55800;54.272;18.558;2023-08-07T02:34:22;98853.41;;;16.10;73.54
68807;BME280;55800;54.272;18.558;2023-08-07T02:36:51;98843.75;;;16.08;73.64
68807;BME280;55800;54.272;18.558;2023-08-07T02:39:21;98844.78;;;16.07;73.15
68807;BME280;55800;54.272;18.558;2023-08-07T02:41:50;98852.88;;;16.07;73.64
68807;BME280;55800;54.272;18.558;2023-08-07T02:44:20;98856.53;;;16.06;73.04
68807;BME280;55800;54.272;18.558;2023-08-07T02:46:51;98857.53;;;16.05;74.07
68807;BME280;55800;54.272;18.558;2023-08-07T02:49:20;98855.69;;;16.05;73.72
68807;BME280;55800;54.272;18.558;2023-08-07T02:51:50;98872.72;;;16.06;73.30
68807;BME280;55800;54.272;18.558;2023-08-07T02:54:19;98871.03;;;16.05;73.58
68807;BME280;55800;54.272;18.558;2023-08-07T02:56:48;98881.09;;;16.03;74.08
68807;BME280;55800;54.272;18.558;2023-08-07T02:59:17;98869.59;;;16.01;73.05
68807;BME280;55800;54.272;18.558;2023-08-07T03:01:47;98870.16;;;16.04;73.67
68807;BME280;55800;54.272;18.558;2023-08-07T03:04:18;98875.56;;;16.04;73.84
68807;BME280;55800;54.272;18.558;2023-08-07T03:06:47;98878.41;;;16.03;73.00
68807;BME280;55800;54.272;18.558;2023-08-07T03:09:16;98901.94;;;16.01;73.06
68807;BME280;55800;54.272;18.558;2023-08-07T03:11:46;98893.00;;;16.00;73.04
68807;BME280;55800;54.272;18.558;2023-08-07T03:14:15;98905.34;;;16.03;73.25
68807;BME280;55800;54.272;18.558;2023-08-07T03:16:45;98894.41;;;16.04;73.65
68807;BME280;55800;54.272;18.558;2023-08-07T03:19:14;98875.56;;;16.04;73.45
68807;BME280;55800;54.272;18.558;2023-08-07T03:21:45;98885.47;;;16.04;73.36
68807;BME280;55800;54.272;18.558;2023-08-07T03:24:15;98877.53;;;16.02;73.35
68807;BME280;55800;54.272;18.558;2023-08-07T03:26:44;98879.09;;;16.05;73.42
68807;BME280;55800;54.272;18.558;2023-08-07T03:29:15;98865.75;;;16.03;74.33
68807;BME280;55800;54.272;18.558;2023-08-07T03:31:45;98870.72;;;16.08;74.83
68807;BME280;55800;54.272;18.558;2023-08-07T03:34:15;98895.28;;;16.05;73.58
68807;BME280;55800;54.272;18.558;2023-08-07T03:36:46;98903.38;;;16.05;73.95
68807;BME280;55800;54.272;18.558;2023-08-07T03:39:15;98901.81;;;16.02;73.38
68807;BME280;55800;54.272;18.558;2023-08-07T03:41:45;98912.28;;;16.05;73.50
68807;BME280;55800;54.272;18.558;2023-08-07T03:44:14;98922.66;;;16.00;73.19
68807;BME280;55800;54.272;18.558;2023-08-07T03:46:44;98929.72;;;16.01;73.55
68807;BME280;55800;54.272;18.558;2023-08-07T03:49:13;98935.97;;;16.02;73.59
68807;BME280;55800;54.272;18.558;2023-08-07T03:51:43;98932.72;;;15.98;73.63
68807;BME280;55800;54.272;18.558;2023-08-07T03:54:13;98946.06;;;16.00;73.26
68807;BME280;55800;54.272;18.558;2023-08-07T03:56:43;98947.06;;;15.99;73.14
68807;BME280;55800;54.272;18.558;2023-08-07T03:59:12;98948.75;;;16.00;74.10
68807;BME280;55800;54.272;18.558;2023-08-07T04:01:42;98937.97;;;16.00;73.75
68807;BME280;55800;54.272;18.558;2023-08-07T04:04:11;98912.59;;;16.02;74.05
68807;BME280;55800;54.272;18.558;2023-08-07T04:06:40;98914.25;;;16.03;74.21
68807;BME280;55800;54.272;18.558;2023-08-07T04:09:12;98915.44;;;16.01;74.40
68807;BME280;55800;54.272;18.558;2023-08-07T04:11:42;98907.34;;;16.01;74.03
68807;BME280;55800;54.272;18.558;2023-08-07T04:14:11;98894.56;;;16.03;74.19
68807;BME280;55800;54.272;18.558;2023-08-07T04:16:41;98898.94;;;16.04;74.28
68807;BME280;55800;54.272;18.558;2023-08-07T04:19:09;98898.25;;;16.02;74.59
68807;BME280;55800;54.272;18.558;2023-08-07T04:21:39;98911.00;;;16.00;74.31
68807;BME280;55800;54.272;18.558;2023-08-07T04:24:09;98916.69;;;15.97;74.85
68807;BME280;55800;54.272;18.558;2023-08-07T04:26:41;98931.88;;;15.98;74.39
68807;BME280;55800;54.272;18.558;2023-08-07T04:29:10;98925.59;;;15.97;73.96
68807;BME280;55800;54.272;18.558;2023-08-07T04:31:41;98910.28;;;15.98;73.92
68807;BME280;55800;54.272;18.558;2023-08-07T04:34:10;98920.94;;;15.99;74.28
68807;BME280;55800;54.272;18.558;2023-08-07T04:36:40;98928.19;;;15.99;74.19
68807;BME280;55800;54.272;18.558;2023-08-07T04:39:09;98931.00;;;15.97;74.46
68807;BME280;55800;54.272;18.558;2023-08-07T04:41:41;98941.06;;;15.95;73.68
68807;BME280;55800;54.272;18.558;2023-08-07T04:44:10;98947.88;;;15.99;73.78
68807;BME280;55800;54.272;18.558;2023-08-07T04:46:39;98948.03;;;15.98;74.33
68807;BME280;55800;54.272;18.558;2023-08-07T04:49:08;98942.66;;;15.98;74.40
68807;BME280;55800;54.272;18.558;2023-08-07T04:51:38;98947.31;;;15.96;74.26
68807;BME280;55800;54.272;18.558;2023-08-07T04:54:07;98947.78;;;16.01;73.72
68807;BME280;55800;54.272;18.558;2023-08-07T04:56:37;98946.47;;;15.95;73.40
68807;BME280;55800;54.272;18.558;2023-08-07T04:59:07;98947.47;;;15.94;74.35
68807;BME280;55800;54.272;18.558;2023-08-07T05:01:36;98962.53;;;15.97;73.57
68807;BME280;55800;54.272;18.558;2023-08-07T05:04:05;98967.16;;;15.95;74.31
68807;BME280;55800;54.272;18.558;2023-08-07T05:06:35;98971.44;;;15.97;73.67
68807;BME280;55800;54.272;18.558;2023-08-07T05:09:04;98965.78;;;16.00;74.10
68807;BME280;55800;54.272;18.558;2023-08-07T05:11:34;98962.94;;;16.02;73.77
68807;BME280;55800;54.272;18.558;2023-08-07T05:14:04;98978.56;;;16.08;73.45
68807;BME280;55800;54.272;18.558;2023-08-07T05:16:35;98968.38;;;16.11;73.77
68807;BME280;55800;54.272;18.558;2023-08-07T05:19:04;98969.06;;;16.13;73.99
68807;BME280;55800;54.272;18.558;2023-08-07T05:21:34;98964.09;;;16.18;73.75
68807;BME280;55800;54.272;18.558;2023-08-07T05:24:04;98958.44;;;16.21;73.81
68807;BME280;55800;54.272;18.558;2023-08-07T05:26:34;98950.19;;;16.23;73.84
68807;BME280;55800;54.272;18.558;2023-08-07T05:29:03;98945.41;;;16.26;73.91
68807;BME280;55800;54.272;18.558;2023-08-07T05:31:34;98927.09;;;16.30;74.10
68807;BME280;55800;54.272;18.558;2023-08-07T05:34:04;98924.78;;;16.35;73.68
68807;BME280;55800;54.272;18.558;2023-08-07T05:36:34;98919.84;;;16.40;73.89
68807;BME280;55800;54.272;18.558;2023-08-07T05:39:04;98931.06;;;16.45;73.29
68807;BME280;55800;54.272;18.558;2023-08-07T05:41:34;98940.56;;;16.49;73.42
68807;BME280;55800;54.272;18.558;2023-08-07T05:44:03;98940.19;;;16.54;73.54
68807;BME280;55800;54.272;18.558;2023-08-07T05:46:35;98940.16;;;16.63;73.22
68807;BME280;55800;54.272;18.558;2023-08-07T05:49:06;98929.81;;;16.68;73.15
68807;BME280;55800;54.272;18.558;2023-08-07T05:51:36;98934.50;;;16.66;72.70
68807;BME280;55800;54.272;18.558;2023-08-07T05:54:05;98943.47;;;16.67;72.93
68807;BME280;55800;54.272;18.558;2023-08-07T05:56:35;98925.41;;;16.67;72.42
68807;BME280;55800;54.272;18.558;2023-08-07T05:59:04;98924.09;;;16.71;72.40
68807;BME280;55800;54.272;18.558;2023-08-07T06:01:35;98945.69;;;16.71;72.74
68807;BME280;55800;54.272;18.558;2023-08-07T06:04:04;98940.75;;;16.76;72.54
68807;BME280;55800;54.272;18.558;2023-08-07T06:06:34;98962.75;;;16.81;72.78
68807;BME280;55800;54.272;18.558;2023-08-07T06:09:03;98971.00;;;16.89;72.51
68807;BME280;55800;54.272;18.558;2023-08-07T06:11:34;98979.22;;;16.97;72.59
68807;BME280;55800;54.272;18.558;2023-08-07T06:14:04;98986.03;;;17.01;72.26
68807;BME280;55800;54.272;18.558;2023-08-07T06:16:34;98977.34;;;17.07;71.96
68807;BME280;55800;54.272;18.558;2023-08-07T06:19:04;98965.56;;;17.08;72.13
68807;BME280;55800;54.272;18.558;2023-08-07T06:21:52;98962.84;;;17.08;71.75
68807;BME280;55800;54.272;18.558;2023-08-07T06:24:22;98945.09;;;17.06;71.37
68807;BME280;55800;54.272;18.558;2023-08-07T06:26:53;98942.56;;;17.04;71.44
68807;BME280;55800;54.272;18.558;2023-08-07T06:29:23;98954.22;;;17.05;71.28
68807;BME280;55800;54.272;18.558;2023-08-07T06:31:54;98945.94;;;17.06;71.11
68807;BME280;55800;54.272;18.558;2023-08-07T06:34:23;98955.03;;;17.05;71.06
68807;BME280;55800;54.272;18.558;2023-08-07T06:36:53;98973.66;;;17.08;71.23
68807;BME280;55800;54.272;18.558;2023-08-07T06:39:22;98964.97;;;17.14;71.01
68807;BME280;55800;54.272;18.558;2023-08-07T06:41:51;98968.97;;;17.10;71.01
68807;BME280;55800;54.272;18.558;2023-08-07T06:44:27;98976.06;;;17.11;71.17
68807;BME280;55800;54.272;18.558;2023-08-07T06:46:58;98980.75;;;17.09;71.22
68807;BME280;55800;54.272;18.558;2023-08-07T06:49:27;98991.13;;;17.14;71.55
68807;BME280;55800;54.272;18.558;2023-08-07T06:51:59;98995.97;;;17.10;70.81
68807;BME280;55800;54.272;18.558;2023-08-07T06:54:29;98997.09;;;17.17;71.28
68807;BME280;55800;54.272;18.558;2023-08-07T06:56:59;99005.91;;;17.20;71.11
68807;BME280;55800;54.272;18.558;2023-08-07T06:59:28;98996.22;;;17.27;70.94
68807;BME280;55800;54.272;18.558;2023-08-07T07:01:59;99000.78;;;17.26;70.79
68807;BME280;55800;54.272;18.558;2023-08-07T07:04:28;98991.38;;;17.21;70.51
68807;BME280;55800;54.272;18.558;2023-08-07T07:06:58;99000.50;;;17.20;70.59
68807;BME280;55800;54.272;18.558;2023-08-07T07:09:27;99017.00;;;17.26;70.90
68807;BME280;55800;54.272;18.558;2023-08-07T07:11:57;99022.25;;;17.28;70.13
68807;BME280;55800;54.272;18.558;2023-08-07T07:14:26;99024.63;;;17.31;70.31
68807;BME280;55800;54.272;18.558;2023-08-07T07:16:55;99027.91;;;17.34;70.40
68807;BME280;55800;54.272;18.558;2023-08-07T07:19:26;99022.34;;;17.36;70.41
68807;BME280;55800;54.272;18.558;2023-08-07T07:21:55;99026.47;;;17.49;70.08
68807;BME280;55800;54.272;18.558;2023-08-07T07:24:25;99032.44;;;17.53;69.90
68807;BME280;55800;54.272;18.558;2023-08-07T07:26:54;99025.47;;;17.60;69.86
68807;BME280;55800;54.272;18.558;2023-08-07T07:29:24;99026.28;;;17.70;70.01
68807;BME280;55800;54.272;18.558;2023-08-07T07:31:53;99030.09;;;17.77;69.79
68807;BME280;55800;54.272;18.558;2023-08-07T07:34:23;99026.81;;;17.83;69.17
68807;BME280;55800;54.272;18.558;2023-08-07T07:36:54;99035.88;;;17.91;69.18
68807;BME280;55800;54.272;18.558;2023-08-07T07:39:23;99029.88;;;17.98;68.76
68807;BME280;55800;54.272;18.558;2023-08-07T07:41:53;99021.00;;;18.05;68.85
68807;BME280;55800;54.272;18.558;2023-08-07T07:44:22;99023.50;;;18.16;69.09
68807;BME280;55800;54.272;18.558;2023-08-07T07:46:52;99030.91;;;18.24;68.00
68807;BME280;55800;54.272;18.558;2023-08-07T07:49:21;99009.34;;;18.32;67.99
68807;BME280;55800;54.272;18.558;2023-08-07T07:51:51;99016.31;;;18.34;67.61
68807;BME280;55800;54.272;18.558;2023-08-07T07:54:22;99019.38;;;18.39;67.92
68807;BME280;55800;54.272;18.558;2023-08-07T07:56:51;99014.09;;;18.47;68.47
68807;BME280;55800;54.272;18.558;2023-08-07T07:59:21;99017.03;;;18.54;67.76
68807;BME280;55800;54.272;18.558;2023-08-07T08:01:50;99026.25;;;18.61;68.34
68807;BME280;55800;54.272;18.558;2023-08-07T08:04:20;99029.81;;;18.61;67.24
68807;BME280;55800;54.272;18.558;2023-08-07T08:06:50;99028.09;;;18.60;66.31
68807;BME280;55800;54.272;18.558;2023-08-07T08:09:18;99038.06;;;18.60;66.20
68807;BME280;55800;54.272;18.558;2023-08-07T08:11:49;99034.22;;;18.62;67.04
68807;BME280;55800;54.272;18.558;2023-08-07T08:14:19;99036.63;;;18.65;66.79
68807;BME280;55800;54.272;18.558;2023-08-07T08:16:48;99037.94;;;18.61;65.57
68807;BME280;55800;54.272;18.558;2023-08-07T08:19:17;99040.03;;;18.67;66.66
68807;BME280;55800;54.272;18.558;2023-08-07T08:21:47;99039.34;;;18.65;65.88
68807;BME280;55800;54.272;18.558;2023-08-07T08:24:16;99044.06;;;18.63;66.30
68807;BME280;55800;54.272;18.558;2023-08-07T08:26:46;99039.78;;;18.61;65.95
68807;BME280;55800;54.272;18.558;2023-08-07T08:29:17;99048.16;;;18.67;66.54
68807;BME280;55800;54.272;18.558;2023-08-07T08:31:46;99040.72;;;18.69;66.56
68807;BME280;55800;54.272;18.558;2023-08-07T08:34:15;99053.50;;;18.77;67.17
68807;BME280;55800;54.272;18.558;2023-08-07T08:36:45;99050.56;;;18.88;66.98
68807;BME280;55800;54.272;18.558;2023-08-07T08:39:14;99035.88;;;18.91;66.32
68807;BME280;55800;54.272;18.558;2023-08-07T08:41:46;99061.22;;;18.90;66.81
68807;BME280;55800;54.272;18.558;2023-08-07T08:44:18;99063.81;;;18.91;66.49
68807;BME280;55800;54.272;18.558;2023-08-07T08:46:50;99070.22;;;18.90;66.07
68807;BME280;55800;54.272;18.558;2023-08-07T08:49:26;99058.31;;;18.83;66.51
68807;BME280;55800;54.272;18.558;2023-08-07T08:51:57;99073.78;;;18.91;66.08
68807;BME280;55800;54.272;18.558;2023-08-07T08:54:28;99079.97;;;18.83;66.00
68807;BME280;55800;54.272;18.558;2023-08-07T08:56:58;99085.53;;;18.82;66.03
68807;BME280;55800;54.272;18.558;2023-08-07T08:59:29;99094.50;;;18.82;65.82
68807;BME280;55800;54.272;18.558;2023-08-07T09:01:59;99104.34;;;18.83;65.72
68807;BME280;55800;54.272;18.558;2023-08-07T09:04:29;99108.94;;;18.73;65.55
68807;BME280;55800;54.272;18.558;2023-08-07T09:06:58;99118.63;;;18.76;65.80
68807;BME280;55800;54.272;18.558;2023-08-07T09:09:29;99115.75;;;18.77;65.35
68807;BME280;55800;54.272;18.558;2023-08-07T09:11:59;99124.03;;;18.76;65.29
68807;BME280;55800;54.272;18.558;2023-08-07T09:14:33;99110.91;;;18.81;65.37
68807;BME280;55800;54.272;18.558;2023-08-07T09:17:06;99121.75;;;18.81;65.09
68807;BME280;55800;54.272;18.558;2023-08-07T09:19:36;99119.78;;;18.73;64.16
68807;BME280;55800;54.272;18.558;2023-08-07T09:22:06;99112.09;;;18.68;63.91
68807;BME280;55800;54.272;18.558;2023-08-07T09:24:36;99106.25;;;18.73;64.78
68807;BME280;55800;54.272;18.558;2023-08-07T09:27:07;99115.06;;;18.75;64.16
68807;BME280;55800;54.272;18.558;2023-08-07T09:29:40;99120.88;;;18.80;64.46
68807;BME280;55800;54.272;18.558;2023-08-07T09:32:11;99117.41;;;18.88;64.76
68807;BME280;55800;54.272;18.558;2023-08-07T09:34:41;99125.63;;;18.96;64.66
68807;BME280;55800;54.272;18.558;2023-08-07T09:37:11;99147.34;;;18.86;63.03
68807;BME280;55800;54.272;18.558;2023-08-07T09:39:41;99151.53;;;18.81;63.85
68807;BME280;55800;54.272;18.558;2023-08-07T09:42:14;99155.22;;;18.80;63.80
68807;BME280;55800;54.272;18.558;2023-08-07T09:44:45;99151.91;;;18.86;63.71
68807;BME280;55800;54.272;18.558;2023-08-07T09:47:16;99151.91;;;18.86;62.89
68807;BME280;55800;54.272;18.558;2023-08-07T09:49:47;99154.78;;;18.84;62.75
68807;BME280;55800;54.272;18.558;2023-08-07T09:52:17;99151.06;;;18.85;62.58
68807;BME280;55800;54.272;18.558;2023-08-07T09:54:47;99150.38;;;18.83;62.78
68807;BME280;55800;54.272;18.558;2023-08-07T09:57:17;99147.34;;;18.86;63.08
68807;BME280;55800;54.272;18.558;2023-08-07T09:59:50;99156.72;;;18.92;62.46
68807;BME280;55800;54.272;18.558;2023-08-07T10:02:20;99143.34;;;18.90;62.40
68807;BME280;55800;54.272;18.558;2023-08-07T10:04:50;99130.66;;;18.91;62.73
68807;BME280;55800;54.272;18.558;2023-08-07T10:07:22;99150.84;;;18.96;62.73
68807;BME280;55800;54.272;18.558;2023-08-07T10:09:52;99142.97;;;19.03;62.21
68807;BME280;55800;54.272;18.558;2023-08-07T10:12:23;99141.81;;;19.05;62.72
68807;BME280;55800;54.272;18.558;2023-08-07T10:14:54;99148.84;;;19.16;62.18
68807;BME280;55800;54.272;18.558;2023-08-07T10:17:25;99131.91;;;19.14;60.91
68807;BME280;55800;54.272;18.558;2023-08-07T10:19:56;99139.75;;;19.17;61.13
68807;BME280;55800;54.272;18.558;2023-08-07T10:22:27;99136.72;;;19.20;61.17
68807;BME280;55800;54.272;18.558;2023-08-07T10:25:01;99153.53;;;19.23;60.38
68807;BME280;55800;54.272;18.558;2023-08-07T10:27:34;99169.06;;;19.21;60.39
68807;BME280;55800;54.272;18.558;2023-08-07T10:30:11;99175.72;;;19.27;60.61
68807;BME280;55800;54.272;18.558;2023-08-07T10:32:43;99162.94;;;19.19;59.34
68807;BME280;55800;54.272;18.558;2023-08-07T10:35:24;99178.81;;;19.14;59.64
68807;BME280;55800;54.272;18.558;2023-08-07T10:37:54;99161.41;;;19.17;60.04
68807;BME280;55800;54.272;18.558;2023-08-07T10:40:23;99158.78;;;19.25;60.99
68807;BME280;55800;54.272;18.558;2023-08-07T10:42:59;99165.44;;;19.30;59.86
68807;BME280;55800;54.272;18.558;2023-08-07T10:45:30;99184.72;;;19.27;59.90
68807;BME280;55800;54.272;18.558;2023-08-07T10:48:06;99180.28;;;19.36;59.96
68807;BME280;55800;54.272;18.558;2023-08-07T10:50:50;99184.22;;;19.41;59.74
68807;BME280;55800;54.272;18.558;2023-08-07T10:53:21;99173.53;;;19.40;59.72
68807;BME280;55800;54.272;18.558;2023-08-07T10:55:57;99180.63;;;19.41;59.05
68807;BME280;55800;54.272;18.558;2023-08-07T10:58:30;99169.34;;;19.45;59.32
68807;BME280;55800;54.272;18.558;2023-08-07T11:01:40;99190.56;;;19.50;58.92
68807;BME280;55800;54.272;18.558;2023-08-07T11:04:11;99179.09;;;19.56;59.52
68807;BME280;55800;54.272;18.558;2023-08-07T11:06:41;99171.28;;;19.53;57.95
68807;BME280;55800;54.272;18.558;2023-08-07T11:09:12;99175.69;;;19.54;58.80
68807;BME280;55800;54.272;18.558;2023-08-07T11:11:43;99183.34;;;19.59;59.09
68807;BME280;55800;54.272;18.558;2023-08-07T11:14:14;99198.84;;;19.49;57.27
68807;BME280;55800;54.272;18.558;2023-08-07T11:16:47;99196.03;;;19.40;57.44
68807;BME280;55800;54.272;18.558;2023-08-07T11:19:17;99176.47;;;19.47;58.62
68807;BME280;55800;54.272;18.558;2023-08-07T11:21:48;99198.16;;;19.47;58.46
68807;BME280;55800;54.272;18.558;2023-08-07T11:24:18;99205.81;;;19.51;58.10
68807;BME280;55800;54.272;18.558;2023-08-07T11:26:49;99208.22;;;19.54;58.84
68807;BME280;55800;54.272;18.558;2023-08-07T11:29:19;99225.03;;;19.58;58.29
68807;BME280;55800;54.272;18.558;2023-08-07T11:31:50;99234.88;;;19.59;58.44
68807;BME280;55800;54.272;18.558;2023-08-07T11:34:20;99215.66;;;19.52;57.87
68807;BME280;55800;54.272;18.558;2023-08-07T11:36:50;99209.09;;;19.55;58.59
68807;BME280;55800;54.272;18.558;2023-08-07T11:39:19;99218.91;;;19.56;58.51
68807;BME280;55800;54.272;18.558;2023-08-07T11:41:51;99237.06;;;19.55;58.18
68807;BME280;55800;54.272;18.558;2023-08-07T11:44:22;99234.47;;;19.54;57.68
68807;BME280;55800;54.272;18.558;2023-08-07T11:46:53;99224.50;;;19.54;58.01
68807;BME280;55800;54.272;18.558;2023-08-07T11:49:23;99225.25;;;19.64;58.73
68807;BME280;55800;54.272;18.558;2023-08-07T11:51:52;99218.69;;;19.67;58.78
68807;BME280;55800;54.272;18.558;2023-08-07T11:54:23;99221.44;;;19.75;58.90
68807;BME280;55800;54.272;18.558;2023-08-07T11:56:52;99217.28;;;19.80;58.90
68807;BME280;55800;54.272;18.558;2023-08-07T11:59:22;99209.44;;;19.77;58.07
68807;BME280;55800;54.272;18.558;2023-08-07T12:01:53;99208.53;;;19.69;57.53
68807;BME280;55800;54.272;18.558;2023-08-07T12:04:23;99211.78;;;19.72;57.85
68807;BME280;55800;54.272;18.558;2023-08-07T12:06:53;99215.50;;;19.71;57.42
68807;BME280;55800;54.272;18.558;2023-08-07T12:09:25;99202.81;;;19.72;57.83
68807;BME280;55800;54.272;18.558;2023-08-07T12:11:56;99204.34;;;19.74;58.58
68807;BME280;55800;54.272;18.558;2023-08-07T12:14:29;99201.00;;;19.80;58.28
68807;BME280;55800;54.272;18.558;2023-08-07T12:17:01;99201.75;;;19.90;58.43
68807;BME280;55800;54.272;18.558;2023-08-07T12:19:38;99201.06;;;19.88;58.02
68807;BME280;55800;54.272;18.558;2023-08-07T12:22:10;99200.44;;;19.94;58.67
68807;BME280;55800;54.272;18.558;2023-08-07T12:24:41;99200.84;;;19.82;57.58
68807;BME280;55800;54.272;18.558;2023-08-07T12:27:11;99209.44;;;19.77;57.21
68807;BME280;55800;54.272;18.558;2023-08-07T12:29:41;99207.44;;;19.79;58.00
68807;BME280;55800;54.272;18.558;2023-08-07T12:32:11;99199.53;;;19.86;57.75
68807;BME280;55800;54.272;18.558;2023-08-07T12:34:42;99202.16;;;19.95;57.92
68807;BME280;55800;54.272;18.558;2023-08-07T12:37:15;99221.50;;;20.00;57.37
68807;BME280;55800;54.272;18.558;2023-08-07T12:39:44;99224.91;;;20.02;57.30
68807;BME280;55800;54.272;18.558;2023-08-07T12:42:16;99219.53;;;20.10;56.77
68807;BME280;55800;54.272;18.558;2023-08-07T12:44:48;99220.19;;;20.22;57.28
68807;BME280;55800;54.272;18.558;2023-08-07T12:47:19;99223.63;;;20.32;57.63
68807;BME280;55800;54.272;18.558;2023-08-07T12:49:49;99227.13;;;20.42;58.22
68807;BME280;55800;54.272;18.558;2023-08-07T12:52:18;99226.00;;;20.53;57.93
68807;BME280;55800;54.272;18.558;2023-08-07T12:54:47;99213.91;;;20.47;57.51
68807;BME280;55800;54.272;18.558;2023-08-07T12:57:17;99220.28;;;20.38;56.86
68807;BME280;55800;54.272;18.558;2023-08-07T12:59:46;99218.78;;;20.36;56.64
68807;BME280;55800;54.272;18.558;2023-08-07T13:02:15;99225.53;;;20.32;56.60
68807;BME280;55800;54.272;18.558;2023-08-07T13:04:50;99240.19;;;20.21;56.25
68807;BME280;55800;54.272;18.558;2023-08-07T13:07:21;99243.03;;;20.19;56.82